sensor_id;sensor_type;location;lat;lon;timestamp;P1;durP1;ratioP1;P2;durP2;ratioP2
1358;SDS011;673;48.098;14.422;2023-05-24T00:01:25;5.40;;;5.00;;
1358;SDS011;673;48.098;14.422;2023-05-24T00:03:52;6.80;;;5.10;;
1358;SDS011;673;48.098;14.422;2023-05-24T00:06:22;5.40;;;5.00;;
1358;SDS011;673;48.098;14.422;2023-05-24T00:08:50;5.80;;;5.30;;
1358;SDS011;673;48.098;14.422;2023-05-24T00:11:17;6.13;;;5.53;;
1358;SDS011;673;48.098;14.422;2023-05-24T00:13:44;5.93;;;5.43;;
1358;SDS011;673;48.098;14.422;2023-05-24T00:16:13;5.43;;;4.93;;
1358;SDS011;673;48.098;14.422;2023-05-24T00:18:40;5.43;;;5.03;;
1358;SDS011;673;48.098;14.422;2023-05-24T00:21:11;4.97;;;4.57;;
1358;SDS011;673;48.098;14.422;2023-05-24T00:23:38;7.57;;;4.43;;
1358;SDS011;673;48.098;14.422;2023-05-24T00:26:06;5.67;;;4.97;;
1358;SDS011;673;48.098;14.422;2023-05-24T00:28:33;4.30;;;4.00;;
1358;SDS011;673;48.098;14.422;2023-05-24T00:31:01;7.63;;;5.60;;
1358;SDS011;673;48.098;14.422;2023-05-24T00:33:29;7.00;;;5.60;;
1358;SDS011;673;48.098;14.422;2023-05-24T00:35:56;5.97;;;5.47;;
1358;SDS011;673;48.098;14.422;2023-05-24T00:38:23;6.20;;;5.60;;
1358;SDS011;673;48.098;14.422;2023-05-24T00:40:51;5.50;;;4.47;;
1358;SDS011;673;48.098;14.422;2023-05-24T00:43:20;5.57;;;5.07;;
1358;SDS011;673;48.098;14.422;2023-05-24T00:45:47;6.23;;;4.80;;
1358;SDS011;673;48.098;14.422;2023-05-24T00:48:37;5.53;;;5.07;;
1358;SDS011;673;48.098;14.422;2023-05-24T00:51:04;5.73;;;5.30;;
1358;SDS011;673;48.098;14.422;2023-05-24T00:53:31;6.33;;;5.60;;
1358;SDS011;673;48.098;14.422;2023-05-24T00:56:01;6.57;;;5.97;;
1358;SDS011;673;48.098;14.422;2023-05-24T00:58:28;6.47;;;5.97;;
1358;SDS011;673;48.098;14.422;2023-05-24T01:00:56;5.23;;;4.83;;
1358;SDS011;673;48.098;14.422;2023-05-24T01:03:25;5.77;;;5.13;;
1358;SDS011;673;48.098;14.422;2023-05-24T01:05:54;4.97;;;4.57;;
1358;SDS011;673;48.098;14.422;2023-05-24T01:08:26;5.07;;;4.67;;
1358;SDS011;673;48.098;14.422;2023-05-24T01:11:10;7.83;;;5.20;;
1358;SDS011;673;48.098;14.422;2023-05-24T01:13:43;8.17;;;5.10;;
1358;SDS011;673;48.098;14.422;2023-05-24T01:16:20;6.33;;;5.83;;
1358;SDS011;673;48.098;14.422;2023-05-24T01:18:51;5.60;;;5.10;;
1358;SDS011;673;48.098;14.422;2023-05-24T01:21:34;5.73;;;5.23;;
1358;SDS011;673;48.098;14.422;2023-05-24T01:24:13;5.77;;;5.17;;
1358;SDS011;673;48.098;14.422;2023-05-24T01:26:59;10.00;;;4.50;;
1358;SDS011;673;48.098;14.422;2023-05-24T01:29:31;5.87;;;5.23;;
1358;SDS011;673;48.098;14.422;2023-05-24T01:31:58;4.80;;;4.40;;
1358;SDS011;673;48.098;14.422;2023-05-24T01:34:26;7.97;;;5.73;;
1358;SDS011;673;48.098;14.422;2023-05-24T01:36:53;6.17;;;5.57;;
1358;SDS011;673;48.098;14.422;2023-05-24T01:39:20;6.30;;;5.30;;
1358;SDS011;673;48.098;14.422;2023-05-24T01:41:51;5.00;;;4.60;;
1358;SDS011;673;48.098;14.422;2023-05-24T01:44:28;5.23;;;4.73;;
1358;SDS011;673;48.098;14.422;2023-05-24T01:47:01;8.67;;;5.57;;
1358;SDS011;673;48.098;14.422;2023-05-24T01:49:41;7.27;;;6.60;;
1358;SDS011;673;48.098;14.422;2023-05-24T01:52:15;5.27;;;4.87;;
1358;SDS011;673;48.098;14.422;2023-05-24T01:54:47;5.80;;;5.30;;
1358;SDS011;673;48.098;14.422;2023-05-24T01:57:18;5.13;;;4.50;;
1358;SDS011;673;48.098;14.422;2023-05-24T01:59:47;6.20;;;5.70;;
1358;SDS011;673;48.098;14.422;2023-05-24T02:02:15;5.83;;;5.23;;
1358;SDS011;673;48.098;14.422;2023-05-24T02:04:42;4.90;;;4.50;;
1358;SDS011;673;48.098;14.422;2023-05-24T02:07:09;7.37;;;4.80;;
1358;SDS011;673;48.098;14.422;2023-05-24T02:09:37;4.70;;;4.10;;
1358;SDS011;673;48.098;14.422;2023-05-24T02:12:04;5.30;;;4.80;;
1358;SDS011;673;48.098;14.422;2023-05-24T02:14:32;6.27;;;5.37;;
1358;SDS011;673;48.098;14.422;2023-05-24T02:17:03;5.67;;;5.17;;
1358;SDS011;673;48.098;14.422;2023-05-24T02:19:30;6.43;;;5.77;;
1358;SDS011;673;48.098;14.422;2023-05-24T02:21:58;5.67;;;5.17;;
1358;SDS011;673;48.098;14.422;2023-05-24T02:24:25;6.47;;;5.97;;
1358;SDS011;673;48.098;14.422;2023-05-24T02:26:52;4.70;;;4.30;;
1358;SDS011;673;48.098;14.422;2023-05-24T02:29:20;5.27;;;4.87;;
1358;SDS011;673;48.098;14.422;2023-05-24T02:31:48;5.70;;;5.20;;
1358;SDS011;673;48.098;14.422;2023-05-24T02:34:21;5.07;;;4.77;;
1358;SDS011;673;48.098;14.422;2023-05-24T02:36:49;5.17;;;4.70;;
1358;SDS011;673;48.098;14.422;2023-05-24T02:39:18;5.97;;;5.47;;
1358;SDS011;673;48.098;14.422;2023-05-24T02:41:45;5.40;;;4.90;;
1358;SDS011;673;48.098;14.422;2023-05-24T02:44:12;6.63;;;5.80;;
1358;SDS011;673;48.098;14.422;2023-05-24T02:46:39;6.10;;;5.50;;
1358;SDS011;673;48.098;14.422;2023-05-24T02:49:06;5.90;;;5.40;;
1358;SDS011;673;48.098;14.422;2023-05-24T02:51:35;6.57;;;6.00;;
1358;SDS011;673;48.098;14.422;2023-05-24T02:54:02;7.37;;;5.50;;
1358;SDS011;673;48.098;14.422;2023-05-24T02:56:30;6.07;;;5.57;;
1358;SDS011;673;48.098;14.422;2023-05-24T02:58:57;10.83;;;6.37;;
1358;SDS011;673;48.098;14.422;2023-05-24T03:01:24;6.47;;;5.87;;
1358;SDS011;673;48.098;14.422;2023-05-24T03:03:51;7.70;;;7.00;;
1358;SDS011;673;48.098;14.422;2023-05-24T03:06:18;7.07;;;6.40;;
1358;SDS011;673;48.098;14.422;2023-05-24T03:08:46;7.03;;;6.33;;
1358;SDS011;673;48.098;14.422;2023-05-24T03:11:13;8.00;;;6.40;;
1358;SDS011;673;48.098;14.422;2023-05-24T03:13:40;7.20;;;6.50;;
1358;SDS011;673;48.098;14.422;2023-05-24T03:16:08;6.43;;;5.83;;
1358;SDS011;673;48.098;14.422;2023-05-24T03:18:35;6.87;;;6.37;;
1358;SDS011;673;48.098;14.422;2023-05-24T03:21:02;6.70;;;6.13;;
1358;SDS011;673;48.098;14.422;2023-05-24T03:23:29;7.30;;;6.60;;
1358;SDS011;673;48.098;14.422;2023-05-24T03:25:58;6.43;;;5.93;;
1358;SDS011;673;48.098;14.422;2023-05-24T03:28:25;6.87;;;6.27;;
1358;SDS011;673;48.098;14.422;2023-05-24T03:30:52;6.50;;;6.00;;
1358;SDS011;673;48.098;14.422;2023-05-24T03:33:19;6.80;;;6.30;;
1358;SDS011;673;48.098;14.422;2023-05-24T03:35:46;7.43;;;6.73;;
1358;SDS011;673;48.098;14.422;2023-05-24T03:38:13;7.70;;;6.90;;
1358;SDS011;673;48.098;14.422;2023-05-24T03:40:40;8.33;;;7.47;;
1358;SDS011;673;48.098;14.422;2023-05-24T03:43:11;7.20;;;6.60;;
1358;SDS011;673;48.098;14.422;2023-05-24T03:45:38;7.70;;;7.10;;
1358;SDS011;673;48.098;14.422;2023-05-24T03:48:05;7.90;;;6.23;;
1358;SDS011;673;48.098;14.422;2023-05-24T03:50:32;8.43;;;6.40;;
1358;SDS011;673;48.098;14.422;2023-05-24T03:52:59;20.57;;;10.63;;
1358;SDS011;673;48.098;14.422;2023-05-24T03:55:26;7.67;;;6.03;;
1358;SDS011;673;48.098;14.422;2023-05-24T03:57:53;16.80;;;6.83;;
1358;SDS011;673;48.098;14.422;2023-05-24T04:00:21;7.10;;;6.50;;
1358;SDS011;673;48.098;14.422;2023-05-24T04:02:48;7.47;;;6.77;;
1358;SDS011;673;48.098;14.422;2023-05-24T04:05:15;7.37;;;6.77;;
1358;SDS011;673;48.098;14.422;2023-05-24T04:07:42;6.70;;;6.10;;
1358;SDS011;673;48.098;14.422;2023-05-24T04:10:10;10.30;;;9.30;;
1358;SDS011;673;48.098;14.422;2023-05-24T04:12:37;8.23;;;7.40;;
1358;SDS011;673;48.098;14.422;2023-05-24T04:15:06;6.57;;;6.17;;
1358;SDS011;673;48.098;14.422;2023-05-24T04:17:35;7.73;;;6.93;;
1358;SDS011;673;48.098;14.422;2023-05-24T04:20:02;7.60;;;7.00;;
1358;SDS011;673;48.098;14.422;2023-05-24T04:22:30;6.50;;;5.93;;
1358;SDS011;673;48.098;14.422;2023-05-24T04:24:57;6.60;;;6.00;;
1358;SDS011;673;48.098;14.422;2023-05-24T04:27:24;7.20;;;6.70;;
1358;SDS011;673;48.098;14.422;2023-05-24T04:29:51;6.63;;;6.00;;
1358;SDS011;673;48.098;14.422;2023-05-24T04:32:19;7.87;;;7.07;;
1358;SDS011;673;48.098;14.422;2023-05-24T04:34:48;7.00;;;6.30;;
1358;SDS011;673;48.098;14.422;2023-05-24T04:37:16;6.30;;;5.80;;
1358;SDS011;673;48.098;14.422;2023-05-24T04:39:43;7.57;;;6.90;;
1358;SDS011;673;48.098;14.422;2023-05-24T04:42:10;7.53;;;6.83;;
1358;SDS011;673;48.098;14.422;2023-05-24T04:44:39;7.20;;;6.60;;
1358;SDS011;673;48.098;14.422;2023-05-24T04:47:07;6.83;;;6.03;;
1358;SDS011;673;48.098;14.422;2023-05-24T04:49:34;6.57;;;5.90;;
1358;SDS011;673;48.098;14.422;2023-05-24T04:52:03;6.80;;;6.30;;
1358;SDS011;673;48.098;14.422;2023-05-24T04:54:31;5.67;;;5.27;;
1358;SDS011;673;48.098;14.422;2023-05-24T04:56:58;4.87;;;4.57;;
1358;SDS011;673;48.098;14.422;2023-05-24T04:59:25;5.30;;;4.90;;
1358;SDS011;673;48.098;14.422;2023-05-24T05:01:52;4.27;;;3.97;;
1358;SDS011;673;48.098;14.422;2023-05-24T05:04:19;3.27;;;3.07;;
1358;SDS011;673;48.098;14.422;2023-05-24T05:06:46;3.53;;;2.80;;
1358;SDS011;673;48.098;14.422;2023-05-24T05:09:15;2.43;;;2.23;;
1358;SDS011;673;48.098;14.422;2023-05-24T05:11:44;2.60;;;2.40;;
1358;SDS011;673;48.098;14.422;2023-05-24T05:14:12;3.07;;;2.77;;
1358;SDS011;673;48.098;14.422;2023-05-24T05:16:39;1.80;;;1.70;;
1358;SDS011;673;48.098;14.422;2023-05-24T05:19:07;2.17;;;1.97;;
1358;SDS011;673;48.098;14.422;2023-05-24T05:21:34;2.20;;;2.00;;
1358;SDS011;673;48.098;14.422;2023-05-24T05:24:03;1.63;;;1.53;;
1358;SDS011;673;48.098;14.422;2023-05-24T05:26:32;1.40;;;1.30;;
1358;SDS011;673;48.098;14.422;2023-05-24T05:28:59;3.10;;;1.53;;
1358;SDS011;673;48.098;14.422;2023-05-24T05:31:26;1.37;;;1.27;;
1358;SDS011;673;48.098;14.422;2023-05-24T05:33:54;2.60;;;1.57;;
1358;SDS011;673;48.098;14.422;2023-05-24T05:36:21;1.20;;;1.10;;
1358;SDS011;673;48.098;14.422;2023-05-24T05:38:48;2.40;;;1.43;;
1358;SDS011;673;48.098;14.422;2023-05-24T05:41:15;2.87;;;1.23;;
1358;SDS011;673;48.098;14.422;2023-05-24T05:43:44;1.67;;;1.30;;
1358;SDS011;673;48.098;14.422;2023-05-24T05:46:11;1.70;;;1.03;;
1358;SDS011;673;48.098;14.422;2023-05-24T05:48:39;2.20;;;1.40;;
1358;SDS011;673;48.098;14.422;2023-05-24T05:51:06;1.40;;;1.30;;
1358;SDS011;673;48.098;14.422;2023-05-24T05:53:34;1.20;;;1.10;;
1358;SDS011;673;48.098;14.422;2023-05-24T05:56:01;1.13;;;1.10;;
1358;SDS011;673;48.098;14.422;2023-05-24T05:58:28;1.50;;;1.40;;
1358;SDS011;673;48.098;14.422;2023-05-24T06:00:56;1.07;;;0.97;;
1358;SDS011;673;48.098;14.422;2023-05-24T06:03:23;1.43;;;1.33;;
1358;SDS011;673;48.098;14.422;2023-05-24T06:05:50;1.47;;;1.37;;
1358;SDS011;673;48.098;14.422;2023-05-24T06:08:17;1.17;;;1.10;;
1358;SDS011;673;48.098;14.422;2023-05-24T06:10:44;1.30;;;1.20;;
1358;SDS011;673;48.098;14.422;2023-05-24T06:13:11;2.57;;;1.03;;
1358;SDS011;673;48.098;14.422;2023-05-24T06:15:38;1.70;;;1.60;;
1358;SDS011;673;48.098;14.422;2023-05-24T06:18:07;1.93;;;1.60;;
1358;SDS011;673;48.098;14.422;2023-05-24T06:20:34;1.47;;;1.37;;
1358;SDS011;673;48.098;14.422;2023-05-24T06:23:01;4.30;;;1.20;;
1358;SDS011;673;48.098;14.422;2023-05-24T06:25:27;1.20;;;1.10;;
1358;SDS011;673;48.098;14.422;2023-05-24T06:27:55;2.33;;;1.63;;
1358;SDS011;673;48.098;14.422;2023-05-24T06:30:21;1.83;;;1.57;;
1358;SDS011;673;48.098;14.422;2023-05-24T06:32:49;1.67;;;1.57;;
1358;SDS011;673;48.098;14.422;2023-05-24T06:35:18;1.27;;;1.17;;
1358;SDS011;673;48.098;14.422;2023-05-24T06:37:45;1.67;;;1.57;;
1358;SDS011;673;48.098;14.422;2023-05-24T06:40:12;1.67;;;1.57;;
1358;SDS011;673;48.098;14.422;2023-05-24T06:42:39;1.73;;;1.63;;
1358;SDS011;673;48.098;14.422;2023-05-24T06:45:06;3.20;;;2.60;;
1358;SDS011;673;48.098;14.422;2023-05-24T06:47:34;2.00;;;1.90;;
1358;SDS011;673;48.098;14.422;2023-05-24T06:50:01;1.70;;;1.60;;
1358;SDS011;673;48.098;14.422;2023-05-24T06:52:30;1.93;;;1.80;;
1358;SDS011;673;48.098;14.422;2023-05-24T06:54:57;2.57;;;2.43;;
1358;SDS011;673;48.098;14.422;2023-05-24T06:57:24;2.57;;;2.47;;
1358;SDS011;673;48.098;14.422;2023-05-24T06:59:51;2.50;;;2.30;;
1358;SDS011;673;48.098;14.422;2023-05-24T07:02:18;2.53;;;2.33;;
1358;SDS011;673;48.098;14.422;2023-05-24T07:04:50;2.70;;;2.50;;
1358;SDS011;673;48.098;14.422;2023-05-24T07:07:19;2.40;;;2.20;;
1358;SDS011;673;48.098;14.422;2023-05-24T07:09:47;2.30;;;2.10;;
1358;SDS011;673;48.098;14.422;2023-05-24T07:12:14;2.83;;;2.63;;
1358;SDS011;673;48.098;14.422;2023-05-24T07:14:42;1.73;;;1.63;;
1358;SDS011;673;48.098;14.422;2023-05-24T07:17:09;4.50;;;2.03;;
1358;SDS011;673;48.098;14.422;2023-05-24T07:19:36;4.37;;;1.80;;
1358;SDS011;673;48.098;14.422;2023-05-24T07:22:03;2.23;;;2.03;;
1358;SDS011;673;48.098;14.422;2023-05-24T07:24:30;2.57;;;2.10;;
1358;SDS011;673;48.098;14.422;2023-05-24T07:26:58;2.53;;;2.33;;
1358;SDS011;673;48.098;14.422;2023-05-24T07:29:25;2.07;;;1.97;;
1358;SDS011;673;48.098;14.422;2023-05-24T07:31:53;3.60;;;2.83;;
1358;SDS011;673;48.098;14.422;2023-05-24T07:34:21;2.00;;;1.90;;
1358;SDS011;673;48.098;14.422;2023-05-24T07:36:51;2.07;;;1.97;;
1358;SDS011;673;48.098;14.422;2023-05-24T07:39:18;2.70;;;2.60;;
1358;SDS011;673;48.098;14.422;2023-05-24T07:41:45;2.07;;;1.97;;
1358;SDS011;673;48.098;14.422;2023-05-24T07:44:13;2.73;;;2.63;;
1358;SDS011;673;48.098;14.422;2023-05-24T07:46:40;2.63;;;2.43;;
1358;SDS011;673;48.098;14.422;2023-05-24T07:49:07;4.87;;;2.00;;
1358;SDS011;673;48.098;14.422;2023-05-24T07:51:35;5.53;;;2.60;;
1358;SDS011;673;48.098;14.422;2023-05-24T07:54:02;2.30;;;2.20;;
1358;SDS011;673;48.098;14.422;2023-05-24T07:56:29;2.43;;;2.20;;
1358;SDS011;673;48.098;14.422;2023-05-24T07:58:56;1.93;;;1.83;;
1358;SDS011;673;48.098;14.422;2023-05-24T08:01:29;2.00;;;1.90;;
1358;SDS011;673;48.098;14.422;2023-05-24T08:03:58;2.20;;;2.10;;
1358;SDS011;673;48.098;14.422;2023-05-24T08:06:25;1.97;;;1.87;;
1358;SDS011;673;48.098;14.422;2023-05-24T08:08:52;2.93;;;2.73;;
1358;SDS011;673;48.098;14.422;2023-05-24T08:11:20;2.60;;;2.50;;
1358;SDS011;673;48.098;14.422;2023-05-24T08:13:47;2.17;;;2.07;;
1358;SDS011;673;48.098;14.422;2023-05-24T08:16:14;1.93;;;1.80;;
1358;SDS011;673;48.098;14.422;2023-05-24T08:18:42;3.30;;;3.10;;
1358;SDS011;673;48.098;14.422;2023-05-24T08:21:10;2.73;;;2.53;;
1358;SDS011;673;48.098;14.422;2023-05-24T08:23:37;2.33;;;2.13;;
1358;SDS011;673;48.098;14.422;2023-05-24T08:26:04;2.37;;;2.27;;
1358;SDS011;673;48.098;14.422;2023-05-24T08:28:31;2.40;;;2.30;;
1358;SDS011;673;48.098;14.422;2023-05-24T08:30:58;2.73;;;2.57;;
1358;SDS011;673;48.098;14.422;2023-05-24T08:33:25;1.87;;;1.77;;
1358;SDS011;673;48.098;14.422;2023-05-24T08:35:54;2.30;;;2.20;;
1358;SDS011;673;48.098;14.422;2023-05-24T08:38:21;2.40;;;2.30;;
1358;SDS011;673;48.098;14.422;2023-05-24T08:40:48;2.47;;;2.37;;
1358;SDS011;673;48.098;14.422;2023-05-24T08:43:15;2.13;;;1.93;;
1358;SDS011;673;48.098;14.422;2023-05-24T08:45:43;2.23;;;2.13;;
1358;SDS011;673;48.098;14.422;2023-05-24T08:48:11;2.30;;;2.20;;
1358;SDS011;673;48.098;14.422;2023-05-24T08:50:38;2.23;;;2.13;;
1358;SDS011;673;48.098;14.422;2023-05-24T08:53:06;3.07;;;1.57;;
1358;SDS011;673;48.098;14.422;2023-05-24T08:55:36;1.73;;;1.50;;
1358;SDS011;673;48.098;14.422;2023-05-24T08:58:04;1.47;;;1.37;;
1358;SDS011;673;48.098;14.422;2023-05-24T09:00:32;1.97;;;1.87;;
1358;SDS011;673;48.098;14.422;2023-05-24T09:02:58;2.33;;;2.17;;
1358;SDS011;673;48.098;14.422;2023-05-24T09:05:27;1.50;;;1.40;;
1358;SDS011;673;48.098;14.422;2023-05-24T09:07:55;2.17;;;2.07;;
1358;SDS011;673;48.098;14.422;2023-05-24T09:10:27;3.70;;;1.60;;
1358;SDS011;673;48.098;14.422;2023-05-24T09:12:55;1.80;;;1.70;;
1358;SDS011;673;48.098;14.422;2023-05-24T09:15:23;2.93;;;2.40;;
1358;SDS011;673;48.098;14.422;2023-05-24T09:17:50;2.20;;;2.00;;
1358;SDS011;673;48.098;14.422;2023-05-24T09:20:17;2.53;;;2.33;;
1358;SDS011;673;48.098;14.422;2023-05-24T09:22:50;3.90;;;2.40;;
1358;SDS011;673;48.098;14.422;2023-05-24T09:25:18;2.40;;;2.30;;
1358;SDS011;673;48.098;14.422;2023-05-24T09:27:49;3.53;;;2.80;;
1358;SDS011;673;48.098;14.422;2023-05-24T09:30:17;4.30;;;3.90;;
1358;SDS011;673;48.098;14.422;2023-05-24T09:32:54;5.47;;;4.97;;
1358;SDS011;673;48.098;14.422;2023-05-24T09:35:22;8.40;;;4.53;;
1358;SDS011;673;48.098;14.422;2023-05-24T09:37:52;5.87;;;5.33;;
1358;SDS011;673;48.098;14.422;2023-05-24T09:40:21;5.50;;;5.00;;
1358;SDS011;673;48.098;14.422;2023-05-24T09:42:52;4.20;;;3.90;;
1358;SDS011;673;48.098;14.422;2023-05-24T09:45:28;4.70;;;4.30;;
1358;SDS011;673;48.098;14.422;2023-05-24T09:47:55;4.20;;;4.00;;
1358;SDS011;673;48.098;14.422;2023-05-24T09:50:24;4.60;;;4.30;;
1358;SDS011;673;48.098;14.422;2023-05-24T09:52:52;3.80;;;3.57;;
1358;SDS011;673;48.098;14.422;2023-05-24T09:55:20;4.20;;;3.80;;
1358;SDS011;673;48.098;14.422;2023-05-24T09:57:50;5.77;;;5.13;;
1358;SDS011;673;48.098;14.422;2023-05-24T10:00:27;4.80;;;4.50;;
1358;SDS011;673;48.098;14.422;2023-05-24T10:03:01;4.63;;;4.23;;
1358;SDS011;673;48.098;14.422;2023-05-24T10:05:30;5.00;;;4.60;;
1358;SDS011;673;48.098;14.422;2023-05-24T10:07:58;5.33;;;4.87;;
1358;SDS011;673;48.098;14.422;2023-05-24T10:10:26;3.43;;;3.23;;
1358;SDS011;673;48.098;14.422;2023-05-24T10:12:56;6.43;;;4.60;;
1358;SDS011;673;48.098;14.422;2023-05-24T10:15:24;5.63;;;5.20;;
1358;SDS011;673;48.098;14.422;2023-05-24T10:17:51;5.03;;;4.43;;
1358;SDS011;673;48.098;14.422;2023-05-24T10:20:19;5.70;;;5.30;;
1358;SDS011;673;48.098;14.422;2023-05-24T10:22:48;6.10;;;5.67;;
1358;SDS011;673;48.098;14.422;2023-05-24T10:25:19;4.87;;;4.47;;
1358;SDS011;673;48.098;14.422;2023-05-24T10:27:48;3.43;;;3.23;;
1358;SDS011;673;48.098;14.422;2023-05-24T10:30:21;3.90;;;3.60;;
1358;SDS011;673;48.098;14.422;2023-05-24T10:32:52;4.47;;;4.07;;
1358;SDS011;673;48.098;14.422;2023-05-24T10:35:22;6.37;;;4.33;;
1358;SDS011;673;48.098;14.422;2023-05-24T10:37:50;4.37;;;4.03;;
1358;SDS011;673;48.098;14.422;2023-05-24T10:40:18;3.40;;;3.20;;
1358;SDS011;673;48.098;14.422;2023-05-24T10:42:46;4.73;;;4.43;;
1358;SDS011;673;48.098;14.422;2023-05-24T10:48:00;5.60;;;5.20;;
1358;SDS011;673;48.098;14.422;2023-05-24T10:50:33;5.40;;;5.00;;
1358;SDS011;673;48.098;14.422;2023-05-24T10:55:52;4.60;;;4.30;;
1358;SDS011;673;48.098;14.422;2023-05-24T10:58:21;4.50;;;4.20;;
1358;SDS011;673;48.098;14.422;2023-05-24T11:00:56;9.30;;;5.30;;
1358;SDS011;673;48.098;14.422;2023-05-24T11:03:23;4.87;;;4.57;;
1358;SDS011;673;48.098;14.422;2023-05-24T11:05:51;4.63;;;4.23;;
1358;SDS011;673;48.098;14.422;2023-05-24T11:08:23;4.53;;;4.23;;
1358;SDS011;673;48.098;14.422;2023-05-24T11:11:00;4.23;;;3.83;;
1358;SDS011;673;48.098;14.422;2023-05-24T11:13:37;4.23;;;3.93;;
1358;SDS011;673;48.098;14.422;2023-05-24T11:16:06;4.80;;;4.50;;
1358;SDS011;673;48.098;14.422;2023-05-24T11:18:35;3.50;;;3.30;;
1358;SDS011;673;48.098;14.422;2023-05-24T11:21:04;3.63;;;3.40;;
1358;SDS011;673;48.098;14.422;2023-05-24T11:23:32;3.90;;;3.70;;
1358;SDS011;673;48.098;14.422;2023-05-24T11:25:59;3.93;;;3.63;;
1358;SDS011;673;48.098;14.422;2023-05-24T11:28:26;3.30;;;3.10;;
1358;SDS011;673;48.098;14.422;2023-05-24T11:30:54;3.50;;;3.30;;
1358;SDS011;673;48.098;14.422;2023-05-24T11:33:22;3.97;;;3.60;;
1358;SDS011;673;48.098;14.422;2023-05-24T11:35:50;3.07;;;2.87;;
1358;SDS011;673;48.098;14.422;2023-05-24T11:38:19;4.10;;;3.80;;
1358;SDS011;673;48.098;14.422;2023-05-24T11:40:47;3.20;;;3.00;;
1358;SDS011;673;48.098;14.422;2023-05-24T11:43:15;3.70;;;3.40;;
1358;SDS011;673;48.098;14.422;2023-05-24T11:45:44;3.43;;;3.13;;
1358;SDS011;673;48.098;14.422;2023-05-24T11:48:13;4.20;;;3.30;;
1358;SDS011;673;48.098;14.422;2023-05-24T11:50:42;4.10;;;3.50;;
1358;SDS011;673;48.098;14.422;2023-05-24T11:53:11;4.17;;;3.87;;
1358;SDS011;673;48.098;14.422;2023-05-24T11:55:39;3.80;;;3.60;;
1358;SDS011;673;48.098;14.422;2023-05-24T11:58:09;3.60;;;3.40;;
1358;SDS011;673;48.098;14.422;2023-05-24T12:00:45;4.17;;;3.87;;
1358;SDS011;673;48.098;14.422;2023-05-24T12:03:13;4.00;;;3.70;;
1358;SDS011;673;48.098;14.422;2023-05-24T12:05:41;4.27;;;3.97;;
1358;SDS011;673;48.098;14.422;2023-05-24T12:08:10;3.47;;;3.27;;
1358;SDS011;673;48.098;14.422;2023-05-24T12:10:40;3.70;;;3.40;;
1358;SDS011;673;48.098;14.422;2023-05-24T12:13:17;3.30;;;3.10;;
1358;SDS011;673;48.098;14.422;2023-05-24T12:15:48;4.60;;;4.20;;
1358;SDS011;673;48.098;14.422;2023-05-24T12:18:17;4.50;;;3.73;;
1358;SDS011;673;48.098;14.422;2023-05-24T12:20:46;4.27;;;3.57;;
1358;SDS011;673;48.098;14.422;2023-05-24T12:23:13;4.10;;;3.73;;
1358;SDS011;673;48.098;14.422;2023-05-24T12:25:40;2.83;;;2.63;;
1358;SDS011;673;48.098;14.422;2023-05-24T12:28:08;6.60;;;6.10;;
1358;SDS011;673;48.098;14.422;2023-05-24T12:30:36;5.57;;;5.17;;
1358;SDS011;673;48.098;14.422;2023-05-24T12:33:07;6.83;;;6.30;;
1358;SDS011;673;48.098;14.422;2023-05-24T12:35:35;6.17;;;5.73;;
1358;SDS011;673;48.098;14.422;2023-05-24T12:38:06;7.67;;;7.00;;
1358;SDS011;673;48.098;14.422;2023-05-24T12:40:34;7.27;;;6.60;;
1358;SDS011;673;48.098;14.422;2023-05-24T12:43:02;6.50;;;5.93;;
1358;SDS011;673;48.098;14.422;2023-05-24T12:45:30;7.30;;;6.60;;
1358;SDS011;673;48.098;14.422;2023-05-24T12:47:57;6.53;;;6.03;;
1358;SDS011;673;48.098;14.422;2023-05-24T12:50:26;7.43;;;6.80;;
1358;SDS011;673;48.098;14.422;2023-05-24T12:52:53;7.03;;;6.53;;
1358;SDS011;673;48.098;14.422;2023-05-24T12:55:23;8.83;;;6.60;;
1358;SDS011;673;48.098;14.422;2023-05-24T12:57:51;5.73;;;5.23;;
1358;SDS011;673;48.098;14.422;2023-05-24T13:00:20;6.57;;;6.07;;
1358;SDS011;673;48.098;14.422;2023-05-24T13:02:48;7.30;;;6.60;;
1358;SDS011;673;48.098;14.422;2023-05-24T13:05:18;6.90;;;6.30;;
1358;SDS011;673;48.098;14.422;2023-05-24T13:07:45;6.90;;;6.40;;
1358;SDS011;673;48.098;14.422;2023-05-24T13:10:12;6.73;;;5.60;;
1358;SDS011;673;48.098;14.422;2023-05-24T13:12:41;6.07;;;5.67;;
1358;SDS011;673;48.098;14.422;2023-05-24T13:15:08;6.17;;;5.67;;
1358;SDS011;673;48.098;14.422;2023-05-24T13:17:35;7.13;;;6.57;;
1358;SDS011;673;48.098;14.422;2023-05-24T13:20:03;7.57;;;6.87;;
1358;SDS011;673;48.098;14.422;2023-05-24T13:22:32;6.83;;;5.90;;
1358;SDS011;673;48.098;14.422;2023-05-24T13:24:59;7.60;;;7.00;;
1358;SDS011;673;48.098;14.422;2023-05-24T13:27:27;6.83;;;6.23;;
1358;SDS011;673;48.098;14.422;2023-05-24T13:29:55;5.30;;;4.90;;
1358;SDS011;673;48.098;14.422;2023-05-24T13:32:22;5.53;;;5.13;;
1358;SDS011;673;48.098;14.422;2023-05-24T13:34:50;6.30;;;5.87;;
1358;SDS011;673;48.098;14.422;2023-05-24T13:37:17;6.63;;;6.13;;
1358;SDS011;673;48.098;14.422;2023-05-24T13:39:44;6.17;;;5.77;;
1358;SDS011;673;48.098;14.422;2023-05-24T13:42:11;5.47;;;5.07;;
1358;SDS011;673;48.098;14.422;2023-05-24T13:44:39;6.47;;;5.87;;
1358;SDS011;673;48.098;14.422;2023-05-24T13:47:07;5.47;;;5.07;;
1358;SDS011;673;48.098;14.422;2023-05-24T13:49:34;4.80;;;4.40;;
1358;SDS011;673;48.098;14.422;2023-05-24T13:52:02;4.70;;;4.30;;
1358;SDS011;673;48.098;14.422;2023-05-24T13:54:29;4.87;;;4.47;;
1358;SDS011;673;48.098;14.422;2023-05-24T13:56:56;5.43;;;5.03;;
1358;SDS011;673;48.098;14.422;2023-05-24T13:59:23;4.87;;;4.27;;
1358;SDS011;673;48.098;14.422;2023-05-24T14:01:51;5.17;;;4.57;;
1358;SDS011;673;48.098;14.422;2023-05-24T14:04:19;5.40;;;5.00;;
1358;SDS011;673;48.098;14.422;2023-05-24T14:06:46;5.80;;;5.20;;
1358;SDS011;673;48.098;14.422;2023-05-24T14:09:13;4.10;;;3.80;;
1358;SDS011;673;48.098;14.422;2023-05-24T14:11:40;4.50;;;4.20;;
1358;SDS011;673;48.098;14.422;2023-05-24T14:14:09;3.83;;;3.20;;
1358;SDS011;673;48.098;14.422;2023-05-24T14:16:36;4.57;;;4.23;;
1358;SDS011;673;48.098;14.422;2023-05-24T14:19:03;4.00;;;3.70;;
1358;SDS011;673;48.098;14.422;2023-05-24T14:21:32;4.10;;;3.53;;
1358;SDS011;673;48.098;14.422;2023-05-24T14:23:58;3.03;;;2.83;;
1358;SDS011;673;48.098;14.422;2023-05-24T14:26:25;2.57;;;2.40;;
1358;SDS011;673;48.098;14.422;2023-05-24T14:28:52;3.47;;;3.20;;
1358;SDS011;673;48.098;14.422;2023-05-24T14:31:19;1.90;;;1.80;;
1358;SDS011;673;48.098;14.422;2023-05-24T14:33:46;2.73;;;2.53;;
1358;SDS011;673;48.098;14.422;2023-05-24T14:36:13;2.93;;;2.73;;
1358;SDS011;673;48.098;14.422;2023-05-24T14:38:42;2.77;;;2.57;;
1358;SDS011;673;48.098;14.422;2023-05-24T14:41:09;2.20;;;1.80;;
1358;SDS011;673;48.098;14.422;2023-05-24T14:43:36;2.20;;;2.00;;
1358;SDS011;673;48.098;14.422;2023-05-24T14:46:04;2.37;;;2.23;;
1358;SDS011;673;48.098;14.422;2023-05-24T14:48:31;2.60;;;2.40;;
1358;SDS011;673;48.098;14.422;2023-05-24T14:50:58;3.37;;;3.07;;
1358;SDS011;673;48.098;14.422;2023-05-24T14:53:25;2.40;;;2.30;;
1358;SDS011;673;48.098;14.422;2023-05-24T14:55:53;7.70;;;2.40;;
1358;SDS011;673;48.098;14.422;2023-05-24T14:58:20;2.93;;;2.70;;
1358;SDS011;673;48.098;14.422;2023-05-24T15:00:47;3.30;;;2.63;;
1358;SDS011;673;48.098;14.422;2023-05-24T15:03:15;1.73;;;1.63;;
1358;SDS011;673;48.098;14.422;2023-05-24T15:05:42;2.93;;;2.73;;
1358;SDS011;673;48.098;14.422;2023-05-24T15:08:09;2.80;;;2.60;;
1358;SDS011;673;48.098;14.422;2023-05-24T15:10:36;3.53;;;2.60;;
1358;SDS011;673;48.098;14.422;2023-05-24T15:13:05;2.50;;;2.30;;
1358;SDS011;673;48.098;14.422;2023-05-24T15:15:32;2.67;;;2.57;;
1358;SDS011;673;48.098;14.422;2023-05-24T15:17:59;3.10;;;2.90;;
1358;SDS011;673;48.098;14.422;2023-05-24T15:20:26;2.37;;;2.27;;
1358;SDS011;673;48.098;14.422;2023-05-24T15:22:53;3.80;;;3.13;;
1358;SDS011;673;48.098;14.422;2023-05-24T15:25:21;2.60;;;2.50;;
1358;SDS011;673;48.098;14.422;2023-05-24T15:27:48;3.30;;;3.10;;